sensor_id;sensor_type;location;lat;lon;timestamp;P1;durP1;ratioP1;P2;durP2;ratioP2
36445;SDS011;22472;50.848;-1.216;2023-11-22T00:02:20;10.65;;;2.60;;
36445;SDS011;22472;50.848;-1.216;2023-11-22T00:04:47;11.32;;;3.13;;
36445;SDS011;22472;50.848;-1.216;2023-11-22T00:07:15;6.72;;;2.85;;
36445;SDS011;22472;50.848;-1.216;2023-11-22T00:09:42;11.77;;;2.75;;
36445;SDS011;22472;50.848;-1.216;2023-11-22T00:12:11;11.80;;;3.38;;
36445;SDS011;22472;50.848;-1.216;2023-11-22T00:14:40;11.68;;;3.53;;
36445;SDS011;22472;50.848;-1.216;2023-11-22T00:17:07;14.02;;;3.72;;
36445;SDS011;22472;50.848;-1.216;2023-11-22T00:19:35;8.85;;;2.95;;
36445;SDS011;22472;50.848;-1.216;2023-11-22T00:22:03;11.55;;;3.03;;
36445;SDS011;22472;50.848;-1.216;2023-11-22T00:24:38;9.25;;;3.35;;
36445;SDS011;22472;50.848;-1.216;2023-11-22T00:27:05;10.30;;;3.33;;
36445;SDS011;22472;50.848;-1.216;2023-11-22T00:29:32;12.43;;;3.40;;
36445;SDS011;22472;50.848;-1.216;2023-11-22T00:32:01;8.80;;;2.70;;
36445;SDS011;22472;50.848;-1.216;2023-11-22T00:34:29;8.35;;;2.45;;
36445;SDS011;22472;50.848;-1.216;2023-11-22T00:36:57;8.98;;;2.88;;
36445;SDS011;22472;50.848;-1.216;2023-11-22T00:39:24;11.18;;;3.25;;
36445;SDS011;22472;50.848;-1.216;2023-11-22T00:41:51;11.52;;;3.28;;
36445;SDS011;22472;50.848;-1.216;2023-11-22T00:44:18;12.23;;;3.55;;
36445;SDS011;22472;50.848;-1.216;2023-11-22T00:46:46;9.85;;;3.20;;
36445;SDS011;22472;50.848;-1.216;2023-11-22T00:49:14;9.90;;;3.58;;
36445;SDS011;22472;50.848;-1.216;2023-11-22T00:51:42;8.45;;;3.33;;
36445;SDS011;22472;50.848;-1.216;2023-11-22T00:54:10;10.70;;;3.40;;
36445;SDS011;22472;50.848;-1.216;2023-11-22T00:56:37;11.45;;;2.97;;
36445;SDS011;22472;50.848;-1.216;2023-11-22T00:59:05;10.88;;;3.30;;
36445;SDS011;22472;50.848;-1.216;2023-11-22T01:01:32;9.80;;;3.05;;
36445;SDS011;22472;50.848;-1.216;2023-11-22T01:03:59;8.70;;;3.40;;
36445;SDS011;22472;50.848;-1.216;2023-11-22T01:06:28;12.48;;;3.67;;
36445;SDS011;22472;50.848;-1.216;2023-11-22T01:08:57;12.63;;;3.38;;
36445;SDS011;22472;50.848;-1.216;2023-11-22T01:11:24;13.80;;;3.47;;
36445;SDS011;22472;50.848;-1.216;2023-11-22T01:13:51;15.00;;;4.03;;
36445;SDS011;22472;50.848;-1.216;2023-11-22T01:16:19;11.15;;;3.47;;
36445;SDS011;22472;50.848;-1.216;2023-11-22T01:18:46;12.23;;;4.45;;
36445;SDS011;22472;50.848;-1.216;2023-11-22T01:21:13;9.60;;;3.40;;
36445;SDS011;22472;50.848;-1.216;2023-11-22T01:23:42;11.38;;;4.47;;
36445;SDS011;22472;50.848;-1.216;2023-11-22T01:26:10;10.20;;;3.78;;
36445;SDS011;22472;50.848;-1.216;2023-11-22T01:28:38;9.57;;;3.97;;
36445;SDS011;22472;50.848;-1.216;2023-11-22T01:33:36;9.43;;;3.55;;
36445;SDS011;22472;50.848;-1.216;2023-11-22T01:36:04;11.30;;;4.10;;
36445;SDS011;22472;50.848;-1.216;2023-11-22T01:38:31;13.95;;;3.70;;
36445;SDS011;22472;50.848;-1.216;2023-11-22T01:41:00;11.10;;;4.05;;
36445;SDS011;22472;50.848;-1.216;2023-11-22T01:43:27;12.75;;;4.20;;
36445;SDS011;22472;50.848;-1.216;2023-11-22T01:45:54;16.08;;;4.53;;
36445;SDS011;22472;50.848;-1.216;2023-11-22T01:48:21;12.18;;;4.40;;
36445;SDS011;22472;50.848;-1.216;2023-11-22T01:50:49;13.23;;;4.63;;
36445;SDS011;22472;50.848;-1.216;2023-11-22T01:53:16;15.25;;;4.55;;
36445;SDS011;22472;50.848;-1.216;2023-11-22T01:55:44;15.38;;;4.63;;
36445;SDS011;22472;50.848;-1.216;2023-11-22T01:58:13;14.52;;;4.95;;
36445;SDS011;22472;50.848;-1.216;2023-11-22T02:00:42;13.18;;;4.55;;
36445;SDS011;22472;50.848;-1.216;2023-11-22T02:03:10;11.00;;;4.10;;
36445;SDS011;22472;50.848;-1.216;2023-11-22T02:05:39;11.43;;;3.88;;
36445;SDS011;22472;50.848;-1.216;2023-11-22T02:08:07;10.95;;;3.90;;
36445;SDS011;22472;50.848;-1.216;2023-11-22T02:10:35;12.38;;;3.70;;
36445;SDS011;22472;50.848;-1.216;2023-11-22T02:13:02;14.20;;;3.95;;
36445;SDS011;22472;50.848;-1.216;2023-11-22T02:15:33;13.13;;;4.45;;
36445;SDS011;22472;50.848;-1.216;2023-11-22T02:18:01;14.32;;;3.75;;
36445;SDS011;22472;50.848;-1.216;2023-11-22T02:20:29;12.55;;;3.97;;
36445;SDS011;22472;50.848;-1.216;2023-11-22T02:22:56;12.40;;;3.90;;
36445;SDS011;22472;50.848;-1.216;2023-11-22T02:25:24;13.73;;;4.22;;
36445;SDS011;22472;50.848;-1.216;2023-11-22T02:27:52;13.48;;;3.97;;
36445;SDS011;22472;50.848;-1.216;2023-11-22T02:30:19;16.92;;;4.47;;
36445;SDS011;22472;50.848;-1.216;2023-11-22T02:32:47;11.65;;;3.90;;
36445;SDS011;22472;50.848;-1.216;2023-11-22T02:35:14;17.48;;;3.83;;
36445;SDS011;22472;50.848;-1.216;2023-11-22T02:37:42;12.48;;;3.97;;
36445;SDS011;22472;50.848;-1.216;2023-11-22T02:40:13;13.25;;;4.00;;
36445;SDS011;22472;50.848;-1.216;2023-11-22T02:42:45;11.55;;;4.38;;
36445;SDS011;22472;50.848;-1.216;2023-11-22T02:45:13;10.20;;;4.15;;
36445;SDS011;22472;50.848;-1.216;2023-11-22T02:47:40;16.05;;;4.30;;
36445;SDS011;22472;50.848;-1.216;2023-11-22T02:50:11;12.05;;;4.13;;
36445;SDS011;22472;50.848;-1.216;2023-11-22T02:52:39;12.82;;;4.35;;
36445;SDS011;22472;50.848;-1.216;2023-11-22T02:55:07;11.68;;;4.38;;
36445;SDS011;22472;50.848;-1.216;2023-11-22T02:57:35;15.38;;;4.88;;
36445;SDS011;22472;50.848;-1.216;2023-11-22T03:00:05;14.70;;;5.25;;
36445;SDS011;22472;50.848;-1.216;2023-11-22T03:05:09;16.60;;;5.53;;
36445;SDS011;22472;50.848;-1.216;2023-11-22T03:07:36;13.77;;;5.13;;
36445;SDS011;22472;50.848;-1.216;2023-11-22T03:10:04;19.20;;;6.13;;
36445;SDS011;22472;50.848;-1.216;2023-11-22T03:12:32;16.75;;;5.50;;
36445;SDS011;22472;50.848;-1.216;2023-11-22T03:14:59;19.10;;;6.32;;
36445;SDS011;22472;50.848;-1.216;2023-11-22T03:17:29;18.13;;;5.82;;
36445;SDS011;22472;50.848;-1.216;2023-11-22T03:19:56;17.00;;;5.72;;
36445;SDS011;22472;50.848;-1.216;2023-11-22T03:22:23;21.17;;;6.43;;
36445;SDS011;22472;50.848;-1.216;2023-11-22T03:24:50;16.50;;;5.90;;
36445;SDS011;22472;50.848;-1.216;2023-11-22T03:27:18;19.35;;;6.20;;
36445;SDS011;22472;50.848;-1.216;2023-11-22T03:29:47;19.40;;;6.22;;
36445;SDS011;22472;50.848;-1.216;2023-11-22T03:32:14;15.55;;;6.43;;
36445;SDS011;22472;50.848;-1.216;2023-11-22T03:35:02;16.20;;;6.40;;
36445;SDS011;22472;50.848;-1.216;2023-11-22T03:37:29;18.88;;;7.03;;
36445;SDS011;22472;50.848;-1.216;2023-11-22T03:39:57;17.80;;;7.00;;
36445;SDS011;22472;50.848;-1.216;2023-11-22T03:42:24;14.35;;;6.50;;
36445;SDS011;22472;50.848;-1.216;2023-11-22T03:44:52;18.73;;;7.18;;
36445;SDS011;22472;50.848;-1.216;2023-11-22T03:47:19;18.80;;;7.00;;
36445;SDS011;22472;50.848;-1.216;2023-11-22T03:49:47;16.90;;;6.60;;
36445;SDS011;22472;50.848;-1.216;2023-11-22T03:52:15;17.85;;;7.22;;
36445;SDS011;22472;50.848;-1.216;2023-11-22T03:54:42;20.38;;;7.18;;
36445;SDS011;22472;50.848;-1.216;2023-11-22T03:57:09;16.95;;;7.32;;
36445;SDS011;22472;50.848;-1.216;2023-11-22T03:59:37;20.98;;;7.00;;
36445;SDS011;22472;50.848;-1.216;2023-11-22T04:02:05;19.42;;;7.28;;
36445;SDS011;22472;50.848;-1.216;2023-11-22T04:04:32;19.92;;;7.72;;
36445;SDS011;22472;50.848;-1.216;2023-11-22T04:06:59;16.77;;;7.32;;
36445;SDS011;22472;50.848;-1.216;2023-11-22T04:09:28;18.17;;;8.25;;
36445;SDS011;22472;50.848;-1.216;2023-11-22T04:11:55;20.70;;;7.43;;
36445;SDS011;22472;50.848;-1.216;2023-11-22T04:14:23;20.52;;;7.63;;
36445;SDS011;22472;50.848;-1.216;2023-11-22T04:16:52;19.95;;;7.18;;
36445;SDS011;22472;50.848;-1.216;2023-11-22T04:19:19;16.13;;;7.38;;
36445;SDS011;22472;50.848;-1.216;2023-11-22T04:21:46;19.05;;;7.45;;
36445;SDS011;22472;50.848;-1.216;2023-11-22T04:24:14;20.15;;;7.40;;
36445;SDS011;22472;50.848;-1.216;2023-11-22T04:26:44;23.90;;;8.15;;
36445;SDS011;22472;50.848;-1.216;2023-11-22T04:29:12;20.23;;;7.88;;
36445;SDS011;22472;50.848;-1.216;2023-11-22T04:31:39;16.83;;;7.28;;
36445;SDS011;22472;50.848;-1.216;2023-11-22T04:34:07;18.65;;;7.80;;
36445;SDS011;22472;50.848;-1.216;2023-11-22T04:36:34;22.98;;;7.22;;
36445;SDS011;22472;50.848;-1.216;2023-11-22T04:39:02;18.65;;;7.43;;
36445;SDS011;22472;50.848;-1.216;2023-11-22T04:41:29;18.05;;;8.00;;
36445;SDS011;22472;50.848;-1.216;2023-11-22T04:43:58;20.70;;;7.55;;
36445;SDS011;22472;50.848;-1.216;2023-11-22T04:46:25;20.23;;;7.32;;
36445;SDS011;22472;50.848;-1.216;2023-11-22T04:48:53;19.17;;;7.80;;
36445;SDS011;22472;50.848;-1.216;2023-11-22T04:51:20;19.52;;;7.72;;
36445;SDS011;22472;50.848;-1.216;2023-11-22T04:53:49;19.42;;;7.68;;
36445;SDS011;22472;50.848;-1.216;2023-11-22T04:56:16;18.30;;;7.82;;
36445;SDS011;22472;50.848;-1.216;2023-11-22T04:58:43;20.48;;;8.18;;
36445;SDS011;22472;50.848;-1.216;2023-11-22T05:01:12;20.15;;;7.57;;
36445;SDS011;22472;50.848;-1.216;2023-11-22T05:03:40;19.13;;;7.72;;
36445;SDS011;22472;50.848;-1.216;2023-11-22T05:06:07;23.33;;;8.20;;
36445;SDS011;22472;50.848;-1.216;2023-11-22T05:08:34;17.63;;;7.78;;
36445;SDS011;22472;50.848;-1.216;2023-11-22T05:11:01;18.23;;;7.05;;
36445;SDS011;22472;50.848;-1.216;2023-11-22T05:13:29;20.00;;;7.78;;
36445;SDS011;22472;50.848;-1.216;2023-11-22T05:15:57;19.25;;;7.43;;
36445;SDS011;22472;50.848;-1.216;2023-11-22T05:18:26;16.75;;;7.78;;
36445;SDS011;22472;50.848;-1.216;2023-11-22T05:20:53;17.35;;;7.55;;
36445;SDS011;22472;50.848;-1.216;2023-11-22T05:23:20;19.45;;;7.50;;
36445;SDS011;22472;50.848;-1.216;2023-11-22T05:25:48;17.73;;;7.63;;
36445;SDS011;22472;50.848;-1.216;2023-11-22T05:28:15;17.38;;;7.70;;
36445;SDS011;22472;50.848;-1.216;2023-11-22T05:30:43;17.77;;;7.90;;
36445;SDS011;22472;50.848;-1.216;2023-11-22T05:33:10;23.10;;;8.30;;
36445;SDS011;22472;50.848;-1.216;2023-11-22T05:35:39;17.17;;;7.85;;
36445;SDS011;22472;50.848;-1.216;2023-11-22T05:38:06;20.95;;;7.72;;
36445;SDS011;22472;50.848;-1.216;2023-11-22T05:40:34;19.85;;;8.27;;
36445;SDS011;22472;50.848;-1.216;2023-11-22T05:43:01;19.92;;;7.93;;
36445;SDS011;22472;50.848;-1.216;2023-11-22T05:45:28;17.38;;;8.52;;
36445;SDS011;22472;50.848;-1.216;2023-11-22T05:47:55;20.73;;;8.27;;
36445;SDS011;22472;50.848;-1.216;2023-11-22T05:50:23;21.33;;;8.25;;
36445;SDS011;22472;50.848;-1.216;2023-11-22T05:52:51;21.98;;;7.97;;
36445;SDS011;22472;50.848;-1.216;2023-11-22T05:55:18;17.88;;;8.05;;
36445;SDS011;22472;50.848;-1.216;2023-11-22T05:57:47;23.13;;;9.02;;
36445;SDS011;22472;50.848;-1.216;2023-11-22T06:00:15;19.83;;;8.35;;
36445;SDS011;22472;50.848;-1.216;2023-11-22T06:02:42;17.60;;;8.13;;
36445;SDS011;22472;50.848;-1.216;2023-11-22T06:05:09;17.42;;;7.63;;
36445;SDS011;22472;50.848;-1.216;2023-11-22T06:07:37;25.83;;;8.73;;
36445;SDS011;22472;50.848;-1.216;2023-11-22T06:10:06;15.73;;;8.07;;
36445;SDS011;22472;50.848;-1.216;2023-11-22T06:12:33;18.75;;;8.15;;
36445;SDS011;22472;50.848;-1.216;2023-11-22T06:15:00;19.38;;;8.10;;
36445;SDS011;22472;50.848;-1.216;2023-11-22T06:17:28;18.10;;;8.35;;
36445;SDS011;22472;50.848;-1.216;2023-11-22T06:19:55;19.55;;;8.32;;
36445;SDS011;22472;50.848;-1.216;2023-11-22T06:22:23;16.25;;;7.95;;
36445;SDS011;22472;50.848;-1.216;2023-11-22T06:24:50;20.95;;;9.07;;
36445;SDS011;22472;50.848;-1.216;2023-11-22T06:27:19;20.33;;;8.48;;
36445;SDS011;22472;50.848;-1.216;2023-11-22T06:29:46;21.42;;;8.50;;
36445;SDS011;22472;50.848;-1.216;2023-11-22T06:32:13;16.38;;;8.27;;
36445;SDS011;22472;50.848;-1.216;2023-11-22T06:34:40;18.63;;;9.13;;
36445;SDS011;22472;50.848;-1.216;2023-11-22T06:37:08;20.60;;;8.82;;
36445;SDS011;22472;50.848;-1.216;2023-11-22T06:39:35;18.67;;;8.82;;
36445;SDS011;22472;50.848;-1.216;2023-11-22T06:42:03;21.52;;;8.38;;
36445;SDS011;22472;50.848;-1.216;2023-11-22T06:44:33;18.33;;;7.63;;
36445;SDS011;22472;50.848;-1.216;2023-11-22T06:47:00;19.05;;;8.70;;
36445;SDS011;22472;50.848;-1.216;2023-11-22T06:49:28;17.25;;;7.45;;
36445;SDS011;22472;50.848;-1.216;2023-11-22T06:51:55;20.50;;;8.32;;
36445;SDS011;22472;50.848;-1.216;2023-11-22T06:54:23;17.70;;;8.10;;
36445;SDS011;22472;50.848;-1.216;2023-11-22T06:56:50;24.67;;;10.10;;
36445;SDS011;22472;50.848;-1.216;2023-11-22T06:59:18;22.60;;;9.13;;
36445;SDS011;22472;50.848;-1.216;2023-11-22T07:01:46;16.98;;;7.57;;
36445;SDS011;22472;50.848;-1.216;2023-11-22T07:04:13;21.92;;;9.55;;
36445;SDS011;22472;50.848;-1.216;2023-11-22T07:06:41;21.55;;;9.32;;
36445;SDS011;22472;50.848;-1.216;2023-11-22T07:09:09;22.48;;;9.85;;
36445;SDS011;22472;50.848;-1.216;2023-11-22T07:11:37;21.40;;;9.60;;
36445;SDS011;22472;50.848;-1.216;2023-11-22T07:14:04;21.70;;;9.20;;
36445;SDS011;22472;50.848;-1.216;2023-11-22T07:16:31;20.05;;;8.40;;
36445;SDS011;22472;50.848;-1.216;2023-11-22T07:19:00;18.98;;;8.43;;
36445;SDS011;22472;50.848;-1.216;2023-11-22T07:21:28;21.05;;;8.23;;
36445;SDS011;22472;50.848;-1.216;2023-11-22T07:23:56;17.98;;;7.70;;
36445;SDS011;22472;50.848;-1.216;2023-11-22T07:26:24;19.55;;;9.35;;
36445;SDS011;22472;50.848;-1.216;2023-11-22T07:28:52;17.52;;;7.72;;
36445;SDS011;22472;50.848;-1.216;2023-11-22T07:31:20;19.63;;;8.57;;
36445;SDS011;22472;50.848;-1.216;2023-11-22T07:33:47;19.00;;;8.20;;
36445;SDS011;22472;50.848;-1.216;2023-11-22T07:36:16;15.27;;;8.50;;
36445;SDS011;22472;50.848;-1.216;2023-11-22T07:38:45;14.45;;;7.97;;
36445;SDS011;22472;50.848;-1.216;2023-11-22T07:41:14;18.52;;;7.95;;
36445;SDS011;22472;50.848;-1.216;2023-11-22T07:43:41;19.13;;;8.60;;
36445;SDS011;22472;50.848;-1.216;2023-11-22T07:46:09;16.88;;;8.02;;
36445;SDS011;22472;50.848;-1.216;2023-11-22T07:48:38;19.77;;;7.82;;
36445;SDS011;22472;50.848;-1.216;2023-11-22T07:51:06;18.70;;;7.90;;
36445;SDS011;22472;50.848;-1.216;2023-11-22T07:53:35;22.25;;;8.73;;
36445;SDS011;22472;50.848;-1.216;2023-11-22T07:56:03;20.33;;;8.82;;
36445;SDS011;22472;50.848;-1.216;2023-11-22T07:58:30;20.45;;;9.65;;
36445;SDS011;22472;50.848;-1.216;2023-11-22T08:00:58;19.42;;;8.50;;
36445;SDS011;22472;50.848;-1.216;2023-11-22T08:03:25;20.52;;;8.80;;
36445;SDS011;22472;50.848;-1.216;2023-11-22T08:05:53;21.17;;;7.60;;
36445;SDS011;22472;50.848;-1.216;2023-11-22T08:08:20;23.42;;;8.45;;
36445;SDS011;22472;50.848;-1.216;2023-11-22T08:10:49;20.70;;;8.00;;
36445;SDS011;22472;50.848;-1.216;2023-11-22T08:13:18;19.70;;;8.52;;
36445;SDS011;22472;50.848;-1.216;2023-11-22T08:15:47;19.55;;;8.95;;
36445;SDS011;22472;50.848;-1.216;2023-11-22T08:18:15;18.38;;;8.30;;
36445;SDS011;22472;50.848;-1.216;2023-11-22T08:20:42;16.08;;;8.18;;
36445;SDS011;22472;50.848;-1.216;2023-11-22T08:23:10;17.35;;;8.80;;
36445;SDS011;22472;50.848;-1.216;2023-11-22T08:25:38;19.30;;;9.07;;
36445;SDS011;22472;50.848;-1.216;2023-11-22T08:28:07;15.23;;;8.38;;
36445;SDS011;22472;50.848;-1.216;2023-11-22T08:30:34;17.92;;;8.93;;
36445;SDS011;22472;50.848;-1.216;2023-11-22T08:33:02;15.60;;;7.90;;
36445;SDS011;22472;50.848;-1.216;2023-11-22T08:35:29;19.80;;;8.88;;
36445;SDS011;22472;50.848;-1.216;2023-11-22T08:37:56;17.95;;;8.93;;
36445;SDS011;22472;50.848;-1.216;2023-11-22T08:40:24;21.77;;;9.20;;
36445;SDS011;22472;50.848;-1.216;2023-11-22T08:42:51;18.50;;;8.90;;
36445;SDS011;22472;50.848;-1.216;2023-11-22T08:45:20;20.85;;;8.85;;
36445;SDS011;22472;50.848;-1.216;2023-11-22T08:47:47;20.38;;;9.02;;
36445;SDS011;22472;50.848;-1.216;2023-11-22T08:50:16;13.88;;;8.85;;
36445;SDS011;22472;50.848;-1.216;2023-11-22T08:52:43;22.17;;;8.82;;
36445;SDS011;22472;50.848;-1.216;2023-11-22T08:55:12;18.95;;;8.27;;
36445;SDS011;22472;50.848;-1.216;2023-11-22T08:57:39;15.95;;;8.93;;
36445;SDS011;22472;50.848;-1.216;2023-11-22T09:00:07;17.85;;;8.77;;
36445;SDS011;22472;50.848;-1.216;2023-11-22T09:02:37;14.90;;;8.48;;
36445;SDS011;22472;50.848;-1.216;2023-11-22T09:05:05;14.20;;;7.13;;
36445;SDS011;22472;50.848;-1.216;2023-11-22T09:07:33;18.55;;;7.80;;
36445;SDS011;22472;50.848;-1.216;2023-11-22T09:10:01;16.25;;;7.30;;
36445;SDS011;22472;50.848;-1.216;2023-11-22T09:12:34;14.07;;;6.68;;
36445;SDS011;22472;50.848;-1.216;2023-11-22T09:15:02;15.02;;;6.45;;
36445;SDS011;22472;50.848;-1.216;2023-11-22T09:17:34;12.27;;;5.97;;
36445;SDS011;22472;50.848;-1.216;2023-11-22T09:20:02;10.82;;;4.95;;
36445;SDS011;22472;50.848;-1.216;2023-11-22T09:22:32;8.73;;;5.20;;
36445;SDS011;22472;50.848;-1.216;2023-11-22T09:24:59;12.30;;;5.13;;
36445;SDS011;22472;50.848;-1.216;2023-11-22T09:27:26;11.52;;;5.28;;
36445;SDS011;22472;50.848;-1.216;2023-11-22T09:29:54;9.60;;;5.07;;
36445;SDS011;22472;50.848;-1.216;2023-11-22T09:32:21;10.50;;;5.10;;
36445;SDS011;22472;50.848;-1.216;2023-11-22T09:34:48;10.82;;;5.13;;
36445;SDS011;22472;50.848;-1.216;2023-11-22T09:37:21;12.07;;;4.97;;
36445;SDS011;22472;50.848;-1.216;2023-11-22T09:39:49;9.98;;;5.32;;
36445;SDS011;22472;50.848;-1.216;2023-11-22T09:42:16;11.82;;;5.57;;
36445;SDS011;22472;50.848;-1.216;2023-11-22T09:44:43;13.57;;;5.10;;
36445;SDS011;22472;50.848;-1.216;2023-11-22T09:47:11;10.50;;;5.00;;
36445;SDS011;22472;50.848;-1.216;2023-11-22T09:49:38;6.68;;;4.35;;
36445;SDS011;22472;50.848;-1.216;2023-11-22T09:52:06;9.07;;;5.25;;
36445;SDS011;22472;50.848;-1.216;2023-11-22T09:54:38;10.82;;;4.88;;
36445;SDS011;22472;50.848;-1.216;2023-11-22T09:57:05;10.02;;;4.82;;
36445;SDS011;22472;50.848;-1.216;2023-11-22T09:59:35;9.27;;;5.27;;
36445;SDS011;22472;50.848;-1.216;2023-11-22T10:02:03;9.30;;;4.93;;
36445;SDS011;22472;50.848;-1.216;2023-11-22T10:04:31;11.80;;;5.70;;
36445;SDS011;22472;50.848;-1.216;2023-11-22T10:06:59;10.27;;;4.82;;
36445;SDS011;22472;50.848;-1.216;2023-11-22T10:09:27;9.82;;;5.15;;
36445;SDS011;22472;50.848;-1.216;2023-11-22T10:11:58;13.50;;;4.88;;
36445;SDS011;22472;50.848;-1.216;2023-11-22T10:14:29;12.18;;;5.07;;
36445;SDS011;22472;50.848;-1.216;2023-11-22T10:16:58;9.73;;;5.00;;
36445;SDS011;22472;50.848;-1.216;2023-11-22T10:19:26;14.32;;;5.13;;
36445;SDS011;22472;50.848;-1.216;2023-11-22T10:22:03;8.98;;;4.20;;
36445;SDS011;22472;50.848;-1.216;2023-11-22T10:24:31;7.55;;;3.78;;
36445;SDS011;22472;50.848;-1.216;2023-11-22T10:27:00;9.07;;;4.60;;
36445;SDS011;22472;50.848;-1.216;2023-11-22T10:29:27;9.63;;;4.03;;
36445;SDS011;22472;50.848;-1.216;2023-11-22T10:31:54;11.73;;;4.03;;
36445;SDS011;22472;50.848;-1.216;2023-11-22T10:34:23;7.45;;;3.20;;
36445;SDS011;22472;50.848;-1.216;2023-11-22T10:36:50;9.63;;;3.88;;
36445;SDS011;22472;50.848;-1.216;2023-11-22T10:39:20;7.43;;;3.38;;
36445;SDS011;22472;50.848;-1.216;2023-11-22T10:41:47;6.33;;;3.13;;
36445;SDS011;22472;50.848;-1.216;2023-11-22T10:44:17;9.88;;;3.05;;
36445;SDS011;22472;50.848;-1.216;2023-11-22T10:46:45;6.70;;;3.08;;
36445;SDS011;22472;50.848;-1.216;2023-11-22T10:49:14;8.25;;;2.85;;
36445;SDS011;22472;50.848;-1.216;2023-11-22T10:51:41;5.28;;;2.40;;
36445;SDS011;22472;50.848;-1.216;2023-11-22T10:54:10;8.25;;;2.85;;
36445;SDS011;22472;50.848;-1.216;2023-11-22T10:56:38;8.48;;;3.00;;
36445;SDS011;22472;50.848;-1.216;2023-11-22T10:59:09;8.20;;;2.53;;
36445;SDS011;22472;50.848;-1.216;2023-11-22T11:01:39;4.72;;;2.58;;
36445;SDS011;22472;50.848;-1.216;2023-11-22T11:04:08;6.32;;;2.80;;
36445;SDS011;22472;50.848;-1.216;2023-11-22T11:06:37;8.75;;;2.85;;
36445;SDS011;22472;50.848;-1.216;2023-11-22T11:09:05;8.50;;;2.60;;
36445;SDS011;22472;50.848;-1.216;2023-11-22T11:11:34;5.55;;;2.42;;
36445;SDS011;22472;50.848;-1.216;2023-11-22T11:14:01;6.97;;;2.25;;
36445;SDS011;22472;50.848;-1.216;2023-11-22T11:16:30;7.22;;;2.83;;
36445;SDS011;22472;50.848;-1.216;2023-11-22T11:19:01;5.55;;;1.95;;
36445;SDS011;22472;50.848;-1.216;2023-11-22T11:21:28;5.60;;;1.92;;
36445;SDS011;22472;50.848;-1.216;2023-11-22T11:23:56;7.50;;;2.13;;
36445;SDS011;22472;50.848;-1.216;2023-11-22T11:26:28;7.82;;;2.60;;
36445;SDS011;22472;50.848;-1.216;2023-11-22T11:28:55;6.25;;;2.15;;
36445;SDS011;22472;50.848;-1.216;2023-11-22T11:31:22;6.63;;;2.42;;
36445;SDS011;22472;50.848;-1.216;2023-11-22T11:33:53;4.25;;;2.20;;
36445;SDS011;22472;50.848;-1.216;2023-11-22T11:36:22;6.10;;;2.10;;
36445;SDS011;22472;50.848;-1.216;2023-11-22T11:38:51;4.57;;;2.20;;
36445;SDS011;22472;50.848;-1.216;2023-11-22T11:41:22;8.57;;;2.15;;
36445;SDS011;22472;50.848;-1.216;2023-11-22T11:43:51;5.38;;;1.90;;
36445;SDS011;22472;50.848;-1.216;2023-11-22T11:46:18;6.13;;;1.77;;
36445;SDS011;22472;50.848;-1.216;2023-11-22T11:48:48;5.85;;;1.58;;
36445;SDS011;22472;50.848;-1.216;2023-11-22T11:51:16;4.82;;;1.48;;
36445;SDS011;22472;50.848;-1.216;2023-11-22T11:53:45;4.68;;;1.75;;
36445;SDS011;22472;50.848;-1.216;2023-11-22T11:56:12;4.90;;;1.30;;
36445;SDS011;22472;50.848;-1.216;2023-11-22T11:58:40;4.50;;;1.30;;
36445;SDS011;22472;50.848;-1.216;2023-11-22T12:01:08;4.55;;;1.42;;
36445;SDS011;22472;50.848;-1.216;2023-11-22T12:03:35;3.35;;;1.25;;
36445;SDS011;22472;50.848;-1.216;2023-11-22T12:06:03;4.55;;;1.30;;
36445;SDS011;22472;50.848;-1.216;2023-11-22T12:08:30;5.93;;;1.38;;
36445;SDS011;22472;50.848;-1.216;2023-11-22T12:11:02;6.10;;;1.42;;
36445;SDS011;22472;50.848;-1.216;2023-11-22T12:13:31;4.55;;;1.40;;
36445;SDS011;22472;50.848;-1.216;2023-11-22T12:15:59;4.70;;;1.30;;
36445;SDS011;22472;50.848;-1.216;2023-11-22T12:18:27;5.68;;;1.67;;
36445;SDS011;22472;50.848;-1.216;2023-11-22T12:20:57;5.47;;;2.05;;
36445;SDS011;22472;50.848;-1.216;2023-11-22T12:23:25;5.93;;;2.28;;
36445;SDS011;22472;50.848;-1.216;2023-11-22T12:25:53;8.63;;;2.40;;
36445;SDS011;22472;50.848;-1.216;2023-11-22T12:28:23;9.55;;;2.08;;
36445;SDS011;22472;50.848;-1.216;2023-11-22T12:30:51;5.88;;;2.17;;
36445;SDS011;22472;50.848;-1.216;2023-11-22T12:33:18;8.77;;;2.80;;
36445;SDS011;22472;50.848;-1.216;2023-11-22T12:35:46;7.65;;;2.17;;
36445;SDS011;22472;50.848;-1.216;2023-11-22T12:38:14;8.32;;;2.70;;
36445;SDS011;22472;50.848;-1.216;2023-11-22T12:40:44;7.10;;;2.80;;
36445;SDS011;22472;50.848;-1.216;2023-11-22T12:43:13;7.95;;;2.55;;
36445;SDS011;22472;50.848;-1.216;2023-11-22T12:45:42;10.13;;;3.58;;
36445;SDS011;22472;50.848;-1.216;2023-11-22T12:48:20;10.57;;;3.80;;
36445;SDS011;22472;50.848;-1.216;2023-11-22T12:50:49;12.45;;;3.80;;
36445;SDS011;22472;50.848;-1.216;2023-11-22T12:53:17;9.30;;;2.88;;
36445;SDS011;22472;50.848;-1.216;2023-11-22T12:55:46;6.35;;;2.65;;
36445;SDS011;22472;50.848;-1.216;2023-11-22T12:58:14;5.90;;;2.10;;
36445;SDS011;22472;50.848;-1.216;2023-11-22T13:00:43;6.25;;;1.58;;
36445;SDS011;22472;50.848;-1.216;2023-11-22T13:03:10;4.22;;;1.40;;
36445;SDS011;22472;50.848;-1.216;2023-11-22T13:05:38;4.55;;;1.23;;
36445;SDS011;22472;50.848;-1.216;2023-11-22T13:08:07;7.00;;;1.30;;
36445;SDS011;22472;50.848;-1.216;2023-11-22T13:10:36;6.30;;;1.15;;
36445;SDS011;22472;50.848;-1.216;2023-11-22T13:13:03;5.50;;;1.35;;
36445;SDS011;22472;50.848;-1.216;2023-11-22T13:15:33;6.45;;;1.33;;
36445;SDS011;22472;50.848;-1.216;2023-11-22T13:18:02;6.15;;;1.20;;
36445;SDS011;22472;50.848;-1.216;2023-11-22T13:20:32;5.03;;;1.00;;
36445;SDS011;22472;50.848;-1.216;2023-11-22T13:22:59;7.57;;;1.60;;
36445;SDS011;22472;50.848;-1.216;2023-11-22T13:25:27;5.22;;;0.93;;
36445;SDS011;22472;50.848;-1.216;2023-11-22T13:27:55;8.52;;;1.60;;
36445;SDS011;22472;50.848;-1.216;2023-11-22T13:30:24;4.82;;;1.10;;
36445;SDS011;22472;50.848;-1.216;2023-11-22T13:32:52;5.47;;;1.02;;
36445;SDS011;22472;50.848;-1.216;2023-11-22T13:35:23;4.68;;;1.35;;
36445;SDS011;22472;50.848;-1.216;2023-11-22T13:40:19;7.57;;;1.00;;
36445;SDS011;22472;50.848;-1.216;2023-11-22T13:42:48;7.10;;;1.17;;
36445;SDS011;22472;50.848;-1.216;2023-11-22T13:45:17;7.15;;;1.40;;
36445;SDS011;22472;50.848;-1.216;2023-11-22T13:47:45;6.32;;;1.20;;
36445;SDS011;22472;50.848;-1.216;2023-11-22T13:50:13;4.15;;;1.08;;
36445;SDS011;22472;50.848;-1.216;2023-11-22T13:52:45;5.75;;;1.08;;
36445;SDS011;22472;50.848;-1.216;2023-11-22T13:55:13;4.78;;;1.10;;
36445;SDS011;22472;50.848;-1.216;2023-11-22T13:57:43;4.35;;;1.23;;
36445;SDS011;22472;50.848;-1.216;2023-11-22T14:00:11;3.85;;;1.00;;
36445;SDS011;22472;50.848;-1.216;2023-11-22T14:02:43;3.42;;;0.98;;
36445;SDS011;22472;50.848;-1.216;2023-11-22T14:05:11;5.07;;;1.35;;
36445;SDS011;22472;50.848;-1.216;2023-11-22T14:07:38;5.90;;;1.05;;
36445;SDS011;22472;50.848;-1.216;2023-11-22T14:10:07;6.78;;;1.15;;
36445;SDS011;22472;50.848;-1.216;2023-11-22T14:12:36;5.15;;;1.08;;
36445;SDS011;22472;50.848;-1.216;2023-11-22T14:15:03;6.47;;;1.25;;
36445;SDS011;22472;50.848;-1.216;2023-11-22T14:17:31;9.43;;;1.58;;
36445;SDS011;22472;50.848;-1.216;2023-11-22T14:19:58;5.22;;;1.30;;
36445;SDS011;22472;50.848;-1.216;2023-11-22T14:22:25;7.68;;;1.52;;
36445;SDS011;22472;50.848;-1.216;2023-11-22T14:24:52;6.95;;;1.40;;
36445;SDS011;22472;50.848;-1.216;2023-11-22T14:27:21;8.80;;;1.30;;
36445;SDS011;22472;50.848;-1.216;2023-11-22T14:29:48;8.57;;;1.40;;
36445;SDS011;22472;50.848;-1.216;2023-11-22T14:32:16;7.30;;;1.40;;
36445;SDS011;22472;50.848;-1.216;2023-11-22T14:34:43;6.80;;;1.30;;
36445;SDS011;22472;50.848;-1.216;2023-11-22T14:37:10;7.18;;;1.30;;
36445;SDS011;22472;50.848;-1.216;2023-11-22T14:39:38;5.55;;;1.10;;